Dothan, AL (36303)

4:12 AM CDT on June 03, 2015 (GMT -0500)
KALDOTHA7 | | Change Station
CLOSE
Current Station
Personal Weather Station
Location: Dothan, AL
Elevation: 300 ft
Nearby Weather Stations

Elev 300 ft 31.27 °N, 85.37 °W | Updated 8 seconds ago

Mostly Cloudy
Mostly Cloudy
69.2 °F
Feels Like 69.2 °F
N
0.0
Wind Variable Wind from South
Gusts 0.0 mph

Today
High -- | Low -- °F
--% Chance of Precip.
Yesterday
High -- | Low -- °F
Precip. -- in
5:37 AM 7:42 PM
Waxing Gibbous, 99% visible
Pressure 29.95 in
Visibility 10.0 miles
Clouds Overcast 11000 ft
Dew Point 68 °F
Humidity 97%
Rainfall 0.00 in
Snow Depth Not available.
UV 0.0 out of 12
Pollen 1.60 out of 12
Air Quality Not available.
Flu Activity Sporadic
METAR KDHN 030853Z AUTO 17003KT 10SM OVC110 22/21 A2996 RMK AO2 SLP141 T02170206 56011

More Conditions Fewer Conditions

Pressure 29.95 in
Visibility 10.0 miles
Clouds Overcast 11000 ft
Dew Point 68 °F
Humidity 97%
Rainfall 0.00 in
Snow Depth Not available.
UV 0.0 out of 12
Pollen 1.60 out of 12
Air Quality Not available.
Flu Activity Sporadic
METAR KDHN 030853Z AUTO 17003KT 10SM OVC110 22/21 A2996 RMK AO2 SLP141 T02170206 56011

More Conditions Fewer Conditions

10-Day Weather Forecast

×

Almanac

Astronomy

Jun. 03, 2015 Rise Set
Actual Time
Civil Twilight
Nautical Twilight
Astronomical Twilight
Moon
Length of Visible Light
Length of Day
Tomorrow will be .
, % of the Moon is Illuminated

Today's Extremes

State Highs State Lows

Community

WunderPhotos

Upload Photos

1,826,194 photos uploaded!

WunderBlogs® & News

Nearby

Air Quality

  Air Quality AQ Index Pollutant
Not available.

Snow Depth

Station Depth Elevation

Earthquake Activity

City Distance Mag. Time & Date
Minimum magnitude displayed is 2.5.

Coastal Water Temperatures

Place Temperature

Stations

Nearby Weather Stations

Station Location Temp. Windchill Dew Point Humidity Wind Precip. Elev Updated Type